sensor_id;sensor_type;location;lat;lon;timestamp;P1;durP1;ratioP1;P2;durP2;ratioP2
59016;SDS011;44800;55.600;38.134;2022-07-03T00:01:40;17.52;;;9.25;;
59016;SDS011;44800;55.600;38.134;2022-07-03T00:04:08;21.20;;;9.48;;
59016;SDS011;44800;55.600;38.134;2022-07-03T00:06:36;19.33;;;9.90;;
59016;SDS011;44800;55.600;38.134;2022-07-03T00:09:05;22.52;;;10.73;;
59016;SDS011;44800;55.600;38.134;2022-07-03T00:11:33;23.17;;;11.57;;
59016;SDS011;44800;55.600;38.134;2022-07-03T00:14:01;23.80;;;10.55;;
59016;SDS011;44800;55.600;38.134;2022-07-03T00:16:30;16.33;;;10.98;;
59016;SDS011;44800;55.600;38.134;2022-07-03T00:18:58;23.27;;;11.85;;
59016;SDS011;44800;55.600;38.134;2022-07-03T00:21:27;25.20;;;11.32;;
59016;SDS011;44800;55.600;38.134;2022-07-03T00:23:58;19.10;;;10.15;;
59016;SDS011;44800;55.600;38.134;2022-07-03T00:26:28;23.15;;;10.88;;
59016;SDS011;44800;55.600;38.134;2022-07-03T00:28:57;21.52;;;11.77;;
59016;SDS011;44800;55.600;38.134;2022-07-03T00:31:27;22.42;;;11.80;;
59016;SDS011;44800;55.600;38.134;2022-07-03T00:33:58;21.70;;;11.77;;
59016;SDS011;44800;55.600;38.134;2022-07-03T00:36:26;18.08;;;10.50;;
59016;SDS011;44800;55.600;38.134;2022-07-03T00:38:56;22.25;;;11.07;;
59016;SDS011;44800;55.600;38.134;2022-07-03T00:41:25;16.13;;;10.48;;
59016;SDS011;44800;55.600;38.134;2022-07-03T00:43:54;19.45;;;11.27;;
59016;SDS011;44800;55.600;38.134;2022-07-03T00:46:22;24.95;;;11.82;;
59016;SDS011;44800;55.600;38.134;2022-07-03T00:48:51;22.35;;;10.77;;
59016;SDS011;44800;55.600;38.134;2022-07-03T00:51:22;19.55;;;11.65;;
59016;SDS011;44800;55.600;38.134;2022-07-03T00:53:50;20.95;;;10.95;;
59016;SDS011;44800;55.600;38.134;2022-07-03T00:56:19;18.27;;;10.40;;
59016;SDS011;44800;55.600;38.134;2022-07-03T00:58:52;21.42;;;11.27;;
59016;SDS011;44800;55.600;38.134;2022-07-03T01:01:20;17.08;;;10.60;;
59016;SDS011;44800;55.600;38.134;2022-07-03T01:03:52;21.77;;;12.05;;
59016;SDS011;44800;55.600;38.134;2022-07-03T01:06:23;23.13;;;11.07;;
59016;SDS011;44800;55.600;38.134;2022-07-03T01:08:51;17.83;;;10.48;;
59016;SDS011;44800;55.600;38.134;2022-07-03T01:11:27;20.48;;;10.68;;
59016;SDS011;44800;55.600;38.134;2022-07-03T01:14:00;24.05;;;10.70;;
59016;SDS011;44800;55.600;38.134;2022-07-03T01:16:30;20.45;;;11.55;;
59016;SDS011;44800;55.600;38.134;2022-07-03T01:19:00;22.15;;;10.40;;
59016;SDS011;44800;55.600;38.134;2022-07-03T01:21:50;17.42;;;11.13;;
59016;SDS011;44800;55.600;38.134;2022-07-03T01:24:37;23.52;;;11.27;;
59016;SDS011;44800;55.600;38.134;2022-07-03T01:27:16;21.77;;;11.63;;
59016;SDS011;44800;55.600;38.134;2022-07-03T01:29:49;23.08;;;11.27;;
59016;SDS011;44800;55.600;38.134;2022-07-03T01:32:18;22.85;;;12.30;;
59016;SDS011;44800;55.600;38.134;2022-07-03T01:34:47;25.10;;;12.63;;
59016;SDS011;44800;55.600;38.134;2022-07-03T01:37:19;21.33;;;11.13;;
59016;SDS011;44800;55.600;38.134;2022-07-03T01:39:49;24.85;;;12.80;;
59016;SDS011;44800;55.600;38.134;2022-07-03T01:42:24;21.30;;;11.85;;
59016;SDS011;44800;55.600;38.134;2022-07-03T01:44:52;21.80;;;10.45;;
59016;SDS011;44800;55.600;38.134;2022-07-03T01:47:20;19.17;;;11.40;;
59016;SDS011;44800;55.600;38.134;2022-07-03T01:49:54;21.20;;;11.30;;
59016;SDS011;44800;55.600;38.134;2022-07-03T01:52:22;20.25;;;11.25;;
59016;SDS011;44800;55.600;38.134;2022-07-03T01:55:11;27.30;;;11.88;;
59016;SDS011;44800;55.600;38.134;2022-07-03T01:57:42;19.13;;;12.00;;
59016;SDS011;44800;55.600;38.134;2022-07-03T02:00:11;18.90;;;10.88;;
59016;SDS011;44800;55.600;38.134;2022-07-03T02:02:42;18.17;;;10.10;;
59016;SDS011;44800;55.600;38.134;2022-07-03T02:05:14;19.60;;;10.85;;
59016;SDS011;44800;55.600;38.134;2022-07-03T02:07:46;23.05;;;11.32;;
59016;SDS011;44800;55.600;38.134;2022-07-03T02:10:15;20.77;;;11.38;;
59016;SDS011;44800;55.600;38.134;2022-07-03T02:12:47;24.30;;;11.80;;
59016;SDS011;44800;55.600;38.134;2022-07-03T02:15:16;21.60;;;11.40;;
59016;SDS011;44800;55.600;38.134;2022-07-03T02:17:45;20.75;;;11.32;;
59016;SDS011;44800;55.600;38.134;2022-07-03T02:20:14;25.73;;;11.65;;
59016;SDS011;44800;55.600;38.134;2022-07-03T02:22:43;21.58;;;11.80;;
59016;SDS011;44800;55.600;38.134;2022-07-03T02:25:13;21.88;;;11.73;;
59016;SDS011;44800;55.600;38.134;2022-07-03T02:27:47;20.92;;;12.25;;
59016;SDS011;44800;55.600;38.134;2022-07-03T02:30:18;25.42;;;12.27;;
59016;SDS011;44800;55.600;38.134;2022-07-03T02:32:48;18.10;;;11.85;;
59016;SDS011;44800;55.600;38.134;2022-07-03T02:35:17;20.42;;;11.57;;
59016;SDS011;44800;55.600;38.134;2022-07-03T02:37:47;23.17;;;11.25;;
59016;SDS011;44800;55.600;38.134;2022-07-03T02:40:17;23.23;;;13.65;;
59016;SDS011;44800;55.600;38.134;2022-07-03T02:42:51;24.17;;;12.38;;
59016;SDS011;44800;55.600;38.134;2022-07-03T02:45:22;24.05;;;11.43;;
59016;SDS011;44800;55.600;38.134;2022-07-03T02:47:51;19.00;;;11.77;;
59016;SDS011;44800;55.600;38.134;2022-07-03T02:50:25;23.25;;;12.45;;
59016;SDS011;44800;55.600;38.134;2022-07-03T02:52:57;20.88;;;12.63;;
59016;SDS011;44800;55.600;38.134;2022-07-03T02:55:30;22.63;;;12.15;;
59016;SDS011;44800;55.600;38.134;2022-07-03T02:58:12;21.52;;;12.10;;
59016;SDS011;44800;55.600;38.134;2022-07-03T03:00:43;21.67;;;11.82;;
59016;SDS011;44800;55.600;38.134;2022-07-03T03:03:15;25.80;;;11.90;;
59016;SDS011;44800;55.600;38.134;2022-07-03T03:05:45;26.08;;;12.65;;
59016;SDS011;44800;55.600;38.134;2022-07-03T03:08:16;21.30;;;12.07;;
59016;SDS011;44800;55.600;38.134;2022-07-03T03:10:46;21.40;;;12.07;;
59016;SDS011;44800;55.600;38.134;2022-07-03T03:13:17;22.80;;;12.57;;
59016;SDS011;44800;55.600;38.134;2022-07-03T03:15:49;27.65;;;13.07;;
59016;SDS011;44800;55.600;38.134;2022-07-03T03:18:22;20.50;;;10.98;;
59016;SDS011;44800;55.600;38.134;2022-07-03T03:20:55;19.70;;;11.85;;
59016;SDS011;44800;55.600;38.134;2022-07-03T03:23:26;19.55;;;11.40;;
59016;SDS011;44800;55.600;38.134;2022-07-03T03:25:58;15.60;;;11.23;;
59016;SDS011;44800;55.600;38.134;2022-07-03T03:28:27;17.38;;;11.50;;
59016;SDS011;44800;55.600;38.134;2022-07-03T03:30:55;16.95;;;9.52;;
59016;SDS011;44800;55.600;38.134;2022-07-03T03:33:23;18.15;;;9.60;;
59016;SDS011;44800;55.600;38.134;2022-07-03T03:35:51;16.35;;;9.15;;
59016;SDS011;44800;55.600;38.134;2022-07-03T03:38:19;15.80;;;8.35;;
59016;SDS011;44800;55.600;38.134;2022-07-03T03:40:53;12.88;;;8.27;;
59016;SDS011;44800;55.600;38.134;2022-07-03T03:43:21;16.83;;;8.98;;
59016;SDS011;44800;55.600;38.134;2022-07-03T03:45:51;13.00;;;8.27;;
59016;SDS011;44800;55.600;38.134;2022-07-03T03:48:19;12.48;;;7.43;;
59016;SDS011;44800;55.600;38.134;2022-07-03T03:50:47;15.07;;;8.73;;
59016;SDS011;44800;55.600;38.134;2022-07-03T03:53:15;13.43;;;8.30;;
59016;SDS011;44800;55.600;38.134;2022-07-03T03:55:59;14.73;;;7.95;;
59016;SDS011;44800;55.600;38.134;2022-07-03T03:58:28;19.00;;;9.60;;
59016;SDS011;44800;55.600;38.134;2022-07-03T04:00:58;14.57;;;9.00;;
59016;SDS011;44800;55.600;38.134;2022-07-03T04:03:27;13.98;;;8.93;;
59016;SDS011;44800;55.600;38.134;2022-07-03T04:05:55;13.43;;;8.02;;
59016;SDS011;44800;55.600;38.134;2022-07-03T04:08:23;14.68;;;8.15;;
59016;SDS011;44800;55.600;38.134;2022-07-03T04:10:52;14.80;;;8.05;;
59016;SDS011;44800;55.600;38.134;2022-07-03T04:13:20;12.57;;;8.30;;
59016;SDS011;44800;55.600;38.134;2022-07-03T04:15:48;16.48;;;9.20;;
59016;SDS011;44800;55.600;38.134;2022-07-03T04:18:18;16.42;;;8.13;;
59016;SDS011;44800;55.600;38.134;2022-07-03T04:20:46;10.55;;;7.93;;
59016;SDS011;44800;55.600;38.134;2022-07-03T04:23:14;14.63;;;8.55;;
59016;SDS011;44800;55.600;38.134;2022-07-03T04:25:42;10.52;;;8.13;;
59016;SDS011;44800;55.600;38.134;2022-07-03T04:28:10;12.68;;;8.52;;
59016;SDS011;44800;55.600;38.134;2022-07-03T04:30:47;12.48;;;8.55;;
59016;SDS011;44800;55.600;38.134;2022-07-03T04:33:15;10.13;;;7.07;;
59016;SDS011;44800;55.600;38.134;2022-07-03T04:35:45;11.02;;;8.45;;
59016;SDS011;44800;55.600;38.134;2022-07-03T04:38:13;12.00;;;8.23;;
59016;SDS011;44800;55.600;38.134;2022-07-03T04:40:41;13.43;;;8.85;;
59016;SDS011;44800;55.600;38.134;2022-07-03T04:43:09;10.40;;;8.27;;
59016;SDS011;44800;55.600;38.134;2022-07-03T04:45:38;11.40;;;8.18;;
59016;SDS011;44800;55.600;38.134;2022-07-03T04:48:06;10.82;;;8.63;;
59016;SDS011;44800;55.600;38.134;2022-07-03T04:50:34;10.25;;;7.97;;
59016;SDS011;44800;55.600;38.134;2022-07-03T04:53:03;12.63;;;8.25;;
59016;SDS011;44800;55.600;38.134;2022-07-03T04:55:31;15.25;;;8.52;;
59016;SDS011;44800;55.600;38.134;2022-07-03T04:57:59;15.55;;;8.68;;
59016;SDS011;44800;55.600;38.134;2022-07-03T05:00:27;11.50;;;8.70;;
59016;SDS011;44800;55.600;38.134;2022-07-03T05:02:56;13.43;;;9.20;;
59016;SDS011;44800;55.600;38.134;2022-07-03T05:05:24;11.55;;;9.23;;
59016;SDS011;44800;55.600;38.134;2022-07-03T05:07:52;13.80;;;9.45;;
59016;SDS011;44800;55.600;38.134;2022-07-03T05:10:21;10.95;;;8.85;;
59016;SDS011;44800;55.600;38.134;2022-07-03T05:12:49;15.90;;;9.50;;
59016;SDS011;44800;55.600;38.134;2022-07-03T05:15:17;16.98;;;9.88;;
59016;SDS011;44800;55.600;38.134;2022-07-03T05:17:45;15.88;;;10.05;;
59016;SDS011;44800;55.600;38.134;2022-07-03T05:20:14;15.40;;;10.63;;
59016;SDS011;44800;55.600;38.134;2022-07-03T05:22:58;13.85;;;10.30;;
59016;SDS011;44800;55.600;38.134;2022-07-03T05:25:28;11.50;;;9.52;;
59016;SDS011;44800;55.600;38.134;2022-07-03T05:27:57;13.65;;;9.85;;
59016;SDS011;44800;55.600;38.134;2022-07-03T05:30:26;14.40;;;10.10;;
59016;SDS011;44800;55.600;38.134;2022-07-03T05:32:54;13.18;;;9.73;;
59016;SDS011;44800;55.600;38.134;2022-07-03T05:35:22;11.82;;;7.32;;
59016;SDS011;44800;55.600;38.134;2022-07-03T05:37:51;14.38;;;8.27;;
59016;SDS011;44800;55.600;38.134;2022-07-03T05:40:19;13.48;;;10.02;;
59016;SDS011;44800;55.600;38.134;2022-07-03T05:42:47;11.88;;;8.35;;
59016;SDS011;44800;55.600;38.134;2022-07-03T05:45:15;15.82;;;10.82;;
59016;SDS011;44800;55.600;38.134;2022-07-03T05:47:43;14.18;;;10.63;;
59016;SDS011;44800;55.600;38.134;2022-07-03T05:50:11;14.80;;;10.88;;
59016;SDS011;44800;55.600;38.134;2022-07-03T05:52:39;15.60;;;9.88;;
59016;SDS011;44800;55.600;38.134;2022-07-03T05:55:07;14.48;;;9.63;;
59016;SDS011;44800;55.600;38.134;2022-07-03T05:57:36;16.20;;;9.55;;
59016;SDS011;44800;55.600;38.134;2022-07-03T06:00:06;14.15;;;10.27;;
59016;SDS011;44800;55.600;38.134;2022-07-03T06:02:34;15.95;;;10.73;;
59016;SDS011;44800;55.600;38.134;2022-07-03T06:05:02;19.90;;;10.93;;
59016;SDS011;44800;55.600;38.134;2022-07-03T06:07:30;13.40;;;10.68;;
59016;SDS011;44800;55.600;38.134;2022-07-03T06:09:58;14.15;;;10.40;;
59016;SDS011;44800;55.600;38.134;2022-07-03T06:12:26;12.32;;;8.70;;
59016;SDS011;44800;55.600;38.134;2022-07-03T06:14:54;12.73;;;7.85;;
59016;SDS011;44800;55.600;38.134;2022-07-03T06:17:30;11.90;;;8.15;;
59016;SDS011;44800;55.600;38.134;2022-07-03T06:19:58;13.95;;;10.88;;
59016;SDS011;44800;55.600;38.134;2022-07-03T06:22:28;14.80;;;10.52;;
59016;SDS011;44800;55.600;38.134;2022-07-03T06:24:56;14.88;;;10.57;;
59016;SDS011;44800;55.600;38.134;2022-07-03T06:27:24;14.07;;;9.98;;
59016;SDS011;44800;55.600;38.134;2022-07-03T06:29:56;13.40;;;10.15;;
59016;SDS011;44800;55.600;38.134;2022-07-03T06:32:24;13.23;;;10.05;;
59016;SDS011;44800;55.600;38.134;2022-07-03T06:34:55;12.68;;;9.55;;
59016;SDS011;44800;55.600;38.134;2022-07-03T06:37:23;7.57;;;6.07;;
59016;SDS011;44800;55.600;38.134;2022-07-03T06:39:51;12.65;;;7.90;;
59016;SDS011;44800;55.600;38.134;2022-07-03T06:42:19;16.73;;;9.75;;
59016;SDS011;44800;55.600;38.134;2022-07-03T06:44:49;10.98;;;9.82;;
59016;SDS011;44800;55.600;38.134;2022-07-03T06:47:18;11.73;;;6.50;;
59016;SDS011;44800;55.600;38.134;2022-07-03T06:49:46;13.20;;;7.47;;
59016;SDS011;44800;55.600;38.134;2022-07-03T06:52:15;13.65;;;6.68;;
59016;SDS011;44800;55.600;38.134;2022-07-03T06:54:43;10.20;;;9.02;;
59016;SDS011;44800;55.600;38.134;2022-07-03T06:57:11;12.02;;;9.43;;
59016;SDS011;44800;55.600;38.134;2022-07-03T06:59:39;15.20;;;9.23;;
59016;SDS011;44800;55.600;38.134;2022-07-03T07:02:08;13.70;;;7.18;;
59016;SDS011;44800;55.600;38.134;2022-07-03T07:04:36;9.70;;;6.75;;
59016;SDS011;44800;55.600;38.134;2022-07-03T07:07:04;11.15;;;7.10;;
59016;SDS011;44800;55.600;38.134;2022-07-03T07:09:34;9.35;;;7.90;;
59016;SDS011;44800;55.600;38.134;2022-07-03T07:12:02;9.45;;;7.40;;
59016;SDS011;44800;55.600;38.134;2022-07-03T07:14:30;10.98;;;5.75;;
59016;SDS011;44800;55.600;38.134;2022-07-03T07:16:58;16.88;;;7.13;;
59016;SDS011;44800;55.600;38.134;2022-07-03T07:19:26;20.77;;;6.90;;
59016;SDS011;44800;55.600;38.134;2022-07-03T07:21:54;11.40;;;6.15;;
59016;SDS011;44800;55.600;38.134;2022-07-03T07:24:22;11.60;;;6.53;;
59016;SDS011;44800;55.600;38.134;2022-07-03T07:26:52;18.13;;;7.82;;
59016;SDS011;44800;55.600;38.134;2022-07-03T07:29:20;10.68;;;7.05;;
59016;SDS011;44800;55.600;38.134;2022-07-03T07:31:48;12.05;;;5.78;;
59016;SDS011;44800;55.600;38.134;2022-07-03T07:34:16;8.85;;;5.00;;
59016;SDS011;44800;55.600;38.134;2022-07-03T07:36:44;10.65;;;5.03;;
59016;SDS011;44800;55.600;38.134;2022-07-03T07:39:12;11.25;;;6.43;;
59016;SDS011;44800;55.600;38.134;2022-07-03T07:41:40;6.40;;;4.30;;
59016;SDS011;44800;55.600;38.134;2022-07-03T07:44:09;8.52;;;5.18;;
59016;SDS011;44800;55.600;38.134;2022-07-03T07:46:44;16.13;;;6.90;;
59016;SDS011;44800;55.600;38.134;2022-07-03T07:49:12;12.10;;;7.00;;
59016;SDS011;44800;55.600;38.134;2022-07-03T07:51:40;8.70;;;5.85;;
59016;SDS011;44800;55.600;38.134;2022-07-03T07:54:08;17.48;;;7.35;;
59016;SDS011;44800;55.600;38.134;2022-07-03T07:56:36;12.80;;;8.82;;
59016;SDS011;44800;55.600;38.134;2022-07-03T07:59:04;12.27;;;7.90;;
59016;SDS011;44800;55.600;38.134;2022-07-03T08:01:34;14.25;;;7.30;;
59016;SDS011;44800;55.600;38.134;2022-07-03T08:04:19;11.88;;;5.25;;
59016;SDS011;44800;55.600;38.134;2022-07-03T08:07:05;19.85;;;6.65;;
59016;SDS011;44800;55.600;38.134;2022-07-03T08:09:33;16.27;;;5.82;;
59016;SDS011;44800;55.600;38.134;2022-07-03T08:12:01;21.75;;;7.38;;
59016;SDS011;44800;55.600;38.134;2022-07-03T08:14:29;18.58;;;7.50;;
59016;SDS011;44800;55.600;38.134;2022-07-03T08:16:58;24.33;;;6.18;;
59016;SDS011;44800;55.600;38.134;2022-07-03T08:19:27;8.07;;;3.88;;
59016;SDS011;44800;55.600;38.134;2022-07-03T08:21:55;16.25;;;7.78;;
59016;SDS011;44800;55.600;38.134;2022-07-03T08:24:25;9.40;;;7.75;;
59016;SDS011;44800;55.600;38.134;2022-07-03T08:26:53;24.17;;;7.30;;
59016;SDS011;44800;55.600;38.134;2022-07-03T08:29:21;11.40;;;5.70;;
59016;SDS011;44800;55.600;38.134;2022-07-03T08:31:49;10.32;;;6.25;;
59016;SDS011;44800;55.600;38.134;2022-07-03T08:34:19;11.82;;;6.50;;
59016;SDS011;44800;55.600;38.134;2022-07-03T08:36:47;8.57;;;3.90;;
59016;SDS011;44800;55.600;38.134;2022-07-03T08:39:15;14.18;;;7.82;;
59016;SDS011;44800;55.600;38.134;2022-07-03T08:41:43;6.68;;;5.25;;
59016;SDS011;44800;55.600;38.134;2022-07-03T08:44:12;9.80;;;5.97;;
59016;SDS011;44800;55.600;38.134;2022-07-03T08:46:41;10.43;;;7.10;;
59016;SDS011;44800;55.600;38.134;2022-07-03T08:49:09;8.20;;;7.22;;
59016;SDS011;44800;55.600;38.134;2022-07-03T08:51:39;10.80;;;7.22;;
59016;SDS011;44800;55.600;38.134;2022-07-03T08:54:08;7.28;;;5.22;;
59016;SDS011;44800;55.600;38.134;2022-07-03T08:56:39;11.18;;;5.75;;
59016;SDS011;44800;55.600;38.134;2022-07-03T08:59:07;15.88;;;9.02;;
59016;SDS011;44800;55.600;38.134;2022-07-03T09:01:37;7.63;;;5.47;;
59016;SDS011;44800;55.600;38.134;2022-07-03T09:04:11;6.30;;;5.38;;
59016;SDS011;44800;55.600;38.134;2022-07-03T09:06:42;5.05;;;3.28;;
59016;SDS011;44800;55.600;38.134;2022-07-03T09:09:12;5.47;;;4.65;;
59016;SDS011;44800;55.600;38.134;2022-07-03T09:11:40;10.32;;;7.65;;
59016;SDS011;44800;55.600;38.134;2022-07-03T09:14:10;6.78;;;4.78;;
59016;SDS011;44800;55.600;38.134;2022-07-03T09:16:38;9.07;;;6.72;;
59016;SDS011;44800;55.600;38.134;2022-07-03T09:19:07;8.52;;;6.50;;
59016;SDS011;44800;55.600;38.134;2022-07-03T09:21:35;9.88;;;6.95;;
59016;SDS011;44800;55.600;38.134;2022-07-03T09:24:08;5.22;;;4.35;;
59016;SDS011;44800;55.600;38.134;2022-07-03T09:26:49;7.32;;;5.40;;
59016;SDS011;44800;55.600;38.134;2022-07-03T09:29:17;6.22;;;5.38;;
59016;SDS011;44800;55.600;38.134;2022-07-03T09:31:53;3.70;;;3.22;;
59016;SDS011;44800;55.600;38.134;2022-07-03T09:34:22;9.60;;;6.15;;
59016;SDS011;44800;55.600;38.134;2022-07-03T09:36:50;5.95;;;5.35;;
59016;SDS011;44800;55.600;38.134;2022-07-03T09:39:20;8.00;;;6.18;;
59016;SDS011;44800;55.600;38.134;2022-07-03T09:41:52;8.00;;;6.43;;
59016;SDS011;44800;55.600;38.134;2022-07-03T09:44:30;7.93;;;6.35;;
59016;SDS011;44800;55.600;38.134;2022-07-03T09:49:51;8.80;;;5.97;;
59016;SDS011;44800;55.600;38.134;2022-07-03T09:52:28;8.90;;;7.05;;
59016;SDS011;44800;55.600;38.134;2022-07-03T09:54:58;7.50;;;6.63;;
59016;SDS011;44800;55.600;38.134;2022-07-03T09:57:26;7.40;;;6.70;;
59016;SDS011;44800;55.600;38.134;2022-07-03T10:00:11;8.88;;;5.38;;
59016;SDS011;44800;55.600;38.134;2022-07-03T10:02:52;6.15;;;5.55;;
59016;SDS011;44800;55.600;38.134;2022-07-03T10:05:20;11.48;;;5.95;;
59016;SDS011;44800;55.600;38.134;2022-07-03T10:07:49;13.10;;;6.53;;
59016;SDS011;44800;55.600;38.134;2022-07-03T10:10:19;9.00;;;5.07;;
59016;SDS011;44800;55.600;38.134;2022-07-03T10:12:48;8.60;;;6.03;;
59016;SDS011;44800;55.600;38.134;2022-07-03T10:15:18;5.65;;;4.70;;
59016;SDS011;44800;55.600;38.134;2022-07-03T10:17:47;9.38;;;5.90;;
59016;SDS011;44800;55.600;38.134;2022-07-03T10:20:17;20.80;;;5.75;;
59016;SDS011;44800;55.600;38.134;2022-07-03T10:22:47;12.97;;;6.67;;
59016;SDS011;44800;55.600;38.134;2022-07-03T10:25:16;13.98;;;7.15;;
59016;SDS011;44800;55.600;38.134;2022-07-03T10:27:46;17.40;;;6.93;;
59016;SDS011;44800;55.600;38.134;2022-07-03T10:30:14;17.58;;;7.88;;
59016;SDS011;44800;55.600;38.134;2022-07-03T10:32:43;12.68;;;6.68;;
59016;SDS011;44800;55.600;38.134;2022-07-03T10:35:15;15.70;;;6.90;;
59016;SDS011;44800;55.600;38.134;2022-07-03T10:37:52;16.00;;;7.45;;
59016;SDS011;44800;55.600;38.134;2022-07-03T10:40:27;10.15;;;6.50;;
59016;SDS011;44800;55.600;38.134;2022-07-03T10:43:21;9.43;;;5.32;;
59016;SDS011;44800;55.600;38.134;2022-07-03T10:46:17;23.88;;;8.05;;
59016;SDS011;44800;55.600;38.134;2022-07-03T10:48:55;12.70;;;7.45;;
59016;SDS011;44800;55.600;38.134;2022-07-03T10:51:24;10.48;;;5.82;;
59016;SDS011;44800;55.600;38.134;2022-07-03T11:02:19;19.73;;;7.30;;
59016;SDS011;44800;55.600;38.134;2022-07-03T11:05:03;13.73;;;6.70;;
59016;SDS011;44800;55.600;38.134;2022-07-03T11:10:34;12.07;;;6.32;;
59016;SDS011;44800;55.600;38.134;2022-07-03T11:13:08;9.73;;;7.10;;
59016;SDS011;44800;55.600;38.134;2022-07-03T11:15:38;11.73;;;6.10;;
59016;SDS011;44800;55.600;38.134;2022-07-03T11:21:05;5.47;;;4.28;;
59016;SDS011;44800;55.600;38.134;2022-07-03T11:23:38;13.43;;;7.20;;
59016;SDS011;44800;55.600;38.134;2022-07-03T11:26:21;22.75;;;8.80;;
59016;SDS011;44800;55.600;38.134;2022-07-03T11:28:53;8.93;;;7.78;;
59016;SDS011;44800;55.600;38.134;2022-07-03T11:31:22;16.95;;;7.75;;
59016;SDS011;44800;55.600;38.134;2022-07-03T11:33:56;29.92;;;7.88;;
59016;SDS011;44800;55.600;38.134;2022-07-03T11:36:26;19.02;;;9.35;;
59016;SDS011;44800;55.600;38.134;2022-07-03T11:39:05;9.45;;;4.15;;
59016;SDS011;44800;55.600;38.134;2022-07-03T11:41:43;15.75;;;7.07;;
59016;SDS011;44800;55.600;38.134;2022-07-03T11:44:18;18.40;;;8.45;;
59016;SDS011;44800;55.600;38.134;2022-07-03T11:46:48;18.23;;;7.82;;
59016;SDS011;44800;55.600;38.134;2022-07-03T11:49:16;9.50;;;7.25;;
59016;SDS011;44800;55.600;38.134;2022-07-03T11:51:55;8.57;;;7.65;;
59016;SDS011;44800;55.600;38.134;2022-07-03T11:54:23;15.75;;;8.10;;
59016;SDS011;44800;55.600;38.134;2022-07-03T11:56:51;12.45;;;6.13;;
59016;SDS011;44800;55.600;38.134;2022-07-03T11:59:19;14.15;;;7.03;;
59016;SDS011;44800;55.600;38.134;2022-07-03T12:01:50;16.38;;;7.55;;
59016;SDS011;44800;55.600;38.134;2022-07-03T12:04:18;13.35;;;9.02;;
59016;SDS011;44800;55.600;38.134;2022-07-03T12:06:48;13.05;;;7.50;;
59016;SDS011;44800;55.600;38.134;2022-07-03T12:09:19;17.13;;;8.95;;
59016;SDS011;44800;55.600;38.134;2022-07-03T12:11:54;14.45;;;7.55;;
59016;SDS011;44800;55.600;38.134;2022-07-03T12:14:38;16.35;;;7.50;;
59016;SDS011;44800;55.600;38.134;2022-07-03T12:17:07;23.02;;;11.10;;
59016;SDS011;44800;55.600;38.134;2022-07-03T12:19:36;21.67;;;9.23;;
59016;SDS011;44800;55.600;38.134;2022-07-03T12:22:05;10.02;;;6.82;;
59016;SDS011;44800;55.600;38.134;2022-07-03T12:24:34;14.10;;;8.30;;
59016;SDS011;44800;55.600;38.134;2022-07-03T12:27:05;21.88;;;9.85;;
59016;SDS011;44800;55.600;38.134;2022-07-03T12:29:33;15.25;;;9.50;;
59016;SDS011;44800;55.600;38.134;2022-07-03T12:32:02;14.48;;;9.02;;
59016;SDS011;44800;55.600;38.134;2022-07-03T12:34:35;21.50;;;9.10;;
59016;SDS011;44800;55.600;38.134;2022-07-03T12:37:04;13.85;;;8.75;;
59016;SDS011;44800;55.600;38.134;2022-07-03T12:39:43;5.50;;;3.50;;
59016;SDS011;44800;55.600;38.134;2022-07-03T12:42:18;18.02;;;7.53;;
59016;SDS011;44800;55.600;38.134;2022-07-03T12:44:56;18.20;;;8.55;;
59016;SDS011;44800;55.600;38.134;2022-07-03T12:47:24;24.17;;;9.82;;
59016;SDS011;44800;55.600;38.134;2022-07-03T12:49:56;16.33;;;8.05;;
59016;SDS011;44800;55.600;38.134;2022-07-03T12:52:26;17.40;;;8.88;;
59016;SDS011;44800;55.600;38.134;2022-07-03T12:54:56;10.98;;;8.88;;
59016;SDS011;44800;55.600;38.134;2022-07-03T12:57:24;15.80;;;8.80;;
59016;SDS011;44800;55.600;38.134;2022-07-03T13:00:10;14.80;;;7.88;;
59016;SDS011;44800;55.600;38.134;2022-07-03T13:02:38;7.18;;;3.95;;
59016;SDS011;44800;55.600;38.134;2022-07-03T13:05:13;17.90;;;8.77;;
59016;SDS011;44800;55.600;38.134;2022-07-03T13:07:42;28.77;;;8.95;;
59016;SDS011;44800;55.600;38.134;2022-07-03T13:10:13;15.93;;;7.97;;
59016;SDS011;44800;55.600;38.134;2022-07-03T13:12:45;18.88;;;8.15;;
59016;SDS011;44800;55.600;38.134;2022-07-03T13:15:13;12.77;;;4.80;;
59016;SDS011;44800;55.600;38.134;2022-07-03T13:17:57;22.00;;;8.82;;
59016;SDS011;44800;55.600;38.134;2022-07-03T13:20:26;17.08;;;7.88;;
59016;SDS011;44800;55.600;38.134;2022-07-03T13:22:55;17.50;;;8.43;;
59016;SDS011;44800;55.600;38.134;2022-07-03T13:25:25;10.55;;;7.57;;
59016;SDS011;44800;55.600;38.134;2022-07-03T13:28:02;9.38;;;7.55;;
59016;SDS011;44800;55.600;38.134;2022-07-03T13:30:30;17.42;;;7.40;;
59016;SDS011;44800;55.600;38.134;2022-07-03T13:32:58;18.98;;;7.65;;
59016;SDS011;44800;55.600;38.134;2022-07-03T13:35:26;27.25;;;8.20;;
59016;SDS011;44800;55.600;38.134;2022-07-03T13:37:55;14.75;;;7.80;;
59016;SDS011;44800;55.600;38.134;2022-07-03T13:40:24;17.40;;;7.15;;
59016;SDS011;44800;55.600;38.134;2022-07-03T13:42:52;12.32;;;5.32;;
59016;SDS011;44800;55.600;38.134;2022-07-03T13:45:21;12.20;;;7.05;;
59016;SDS011;44800;55.600;38.134;2022-07-03T13:47:50;21.85;;;8.88;;
59016;SDS011;44800;55.600;38.134;2022-07-03T13:50:18;11.30;;;7.97;;
59016;SDS011;44800;55.600;38.134;2022-07-03T13:52:46;15.15;;;9.30;;
59016;SDS011;44800;55.600;38.134;2022-07-03T13:55:16;16.67;;;8.75;;
59016;SDS011;44800;55.600;38.134;2022-07-03T13:57:45;33.42;;;9.57;;
59016;SDS011;44800;55.600;38.134;2022-07-03T14:00:15;20.42;;;9.98;;
59016;SDS011;44800;55.600;38.134;2022-07-03T14:02:43;24.55;;;9.05;;
59016;SDS011;44800;55.600;38.134;2022-07-03T14:05:11;34.40;;;10.02;;
59016;SDS011;44800;55.600;38.134;2022-07-03T14:07:39;26.98;;;10.65;;
59016;SDS011;44800;55.600;38.134;2022-07-03T14:10:08;20.15;;;10.30;;
59016;SDS011;44800;55.600;38.134;2022-07-03T14:12:36;31.63;;;11.32;;
59016;SDS011;44800;55.600;38.134;2022-07-03T14:15:06;36.55;;;10.80;;
59016;SDS011;44800;55.600;38.134;2022-07-03T14:17:34;31.02;;;10.32;;
59016;SDS011;44800;55.600;38.134;2022-07-03T14:20:02;45.92;;;10.70;;
59016;SDS011;44800;55.600;38.134;2022-07-03T14:22:31;28.92;;;8.85;;
59016;SDS011;44800;55.600;38.134;2022-07-03T14:24:58;34.30;;;9.52;;
59016;SDS011;44800;55.600;38.134;2022-07-03T14:27:27;28.40;;;9.63;;
59016;SDS011;44800;55.600;38.134;2022-07-03T14:30:14;31.92;;;9.73;;
59016;SDS011;44800;55.600;38.134;2022-07-03T14:32:59;43.25;;;9.93;;
59016;SDS011;44800;55.600;38.134;2022-07-03T14:35:27;29.23;;;10.25;;
59016;SDS011;44800;55.600;38.134;2022-07-03T14:37:55;26.40;;;8.73;;
59016;SDS011;44800;55.600;38.134;2022-07-03T14:40:23;14.00;;;8.82;;
59016;SDS011;44800;55.600;38.134;2022-07-03T14:42:53;22.33;;;9.48;;
59016;SDS011;44800;55.600;38.134;2022-07-03T14:45:24;17.88;;;8.48;;
59016;SDS011;44800;55.600;38.134;2022-07-03T14:47:53;20.60;;;8.80;;
59016;SDS011;44800;55.600;38.134;2022-07-03T14:50:21;16.10;;;8.40;;
59016;SDS011;44800;55.600;38.134;2022-07-03T14:52:49;15.15;;;7.68;;
59016;SDS011;44800;55.600;38.134;2022-07-03T14:55:17;12.05;;;8.57;;